createdAt,value
2022-08-10T00:01:00.228Z,98696.22
2022-08-10T00:06:04.609Z,98692.47
2022-08-10T00:11:15.421Z,98691.91
2022-08-10T00:16:22.833Z,98695.03
2022-08-10T00:21:27.376Z,98693.56
2022-08-10T00:27:51.681Z,98693.78
2022-08-10T00:31:59.657Z,98692.88
2022-08-10T00:37:04.459Z,98686.06
2022-08-10T00:42:11.469Z,98690.03
2022-08-10T00:47:36.257Z,98687.13
2022-08-10T00:52:43.972Z,98690.38
2022-08-10T00:57:54.963Z,98682.50
2022-08-10T01:03:01.601Z,98672.91
2022-08-10T01:08:32.834Z,98671.69
2022-08-10T01:13:45.545Z,98661.34
2022-08-10T01:19:02.261Z,98662.66
2022-08-10T01:24:51.261Z,98665.44
2022-08-10T01:30:04.411Z,98671.91
2022-08-10T01:35:18.039Z,98666.16
2022-08-10T01:40:28.459Z,98662.09
2022-08-10T01:45:45.123Z,98665.56
2022-08-10T01:50:59.560Z,98665.31
2022-08-10T01:56:08.476Z,98672.16
2022-08-10T02:01:20.977Z,98670.31
2022-08-10T02:06:29.045Z,98666.28
2022-08-10T02:11:55.613Z,98677.97
2022-08-10T02:17:02.416Z,98681.59
2022-08-10T02:22:36.412Z,98682.84
2022-08-10T02:27:38.153Z,98690.66
2022-08-10T02:32:52.676Z,98683.00
2022-08-10T02:38:07.226Z,98683.09
2022-08-10T02:45:20.367Z,98687.66
2022-08-10T02:48:59.636Z,98687.72
2022-08-10T02:54:10.376Z,98687.03
2022-08-10T02:59:23.575Z,98685.88
2022-08-10T03:04:55.872Z,98677.50
2022-08-10T03:10:04.547Z,98684.59
2022-08-10T03:15:20.578Z,98678.81
2022-08-10T03:20:36.649Z,98678.81
2022-08-10T03:25:53.536Z,98669.91
2022-08-10T03:31:01.905Z,98672.72
2022-08-10T03:36:41.826Z,98676.44
2022-08-10T03:41:41.739Z,98676.63
2022-08-10T03:47:01.880Z,98674.16
2022-08-10T03:52:09.167Z,98679.91
2022-08-10T03:57:14.979Z,98673.28
2022-08-10T04:02:44.273Z,98682.41
2022-08-10T04:07:48.084Z,98690.19
2022-08-10T04:12:52.835Z,98689.22
2022-08-10T04:18:05.876Z,98692.56
2022-08-10T04:23:20.184Z,98697.09
2022-08-10T04:28:26.182Z,98697.00
2022-08-10T04:33:34.567Z,98690.31
2022-08-10T04:38:44.154Z,98699.03
2022-08-10T04:43:48.993Z,98703.53
2022-08-10T04:48:59.660Z,98711.72
2022-08-10T04:54:08.444Z,98709.28
2022-08-10T04:59:13.993Z,98715.88
2022-08-10T05:04:38.498Z,98724.72
2022-08-10T05:10:01.227Z,98726.34
2022-08-10T05:15:12.204Z,98731.84
2022-08-10T05:20:16.994Z,98730.75
2022-08-10T05:25:22.893Z,98735.47
2022-08-10T05:30:27.556Z,98734.25
2022-08-10T05:35:56.248Z,98735.03
2022-08-10T05:40:59.106Z,98740.84
2022-08-10T05:46:17.054Z,98738.84
2022-08-10T05:51:26.015Z,98745.38
2022-08-10T05:56:53.435Z,98750.78
2022-08-10T06:02:32.709Z,98747.75
2022-08-10T06:07:28.307Z,98751.16
2022-08-10T06:12:55.718Z,98743.84
2022-08-10T06:18:03.840Z,98749.66
2022-08-10T06:23:09.144Z,98745.28
2022-08-10T06:28:18.940Z,98749.31
2022-08-10T06:33:26.425Z,98751.59
2022-08-10T06:38:34.846Z,98750.94
2022-08-10T06:43:46.913Z,98758.97
2022-08-10T06:49:01.396Z,98752.28
2022-08-10T06:54:10.156Z,98743.41
2022-08-10T06:59:27.087Z,98745.50
2022-08-10T07:04:38.038Z,98744.19
2022-08-10T07:09:45.099Z,98744.00
2022-08-10T07:14:53.499Z,98743.09
2022-08-10T07:20:01.766Z,98733.16
2022-08-10T07:25:11.844Z,98724.63
2022-08-10T07:30:17.553Z,98722.16
2022-08-10T07:35:24.037Z,98711.66
2022-08-10T07:40:29.047Z,98703.06
2022-08-10T07:45:36.843Z,98698.00
2022-08-10T07:50:43.662Z,98704.66
2022-08-10T07:56:02.059Z,98712.13
2022-08-10T08:01:18.868Z,98699.00
2022-08-10T08:06:24.103Z,98694.16
2022-08-10T08:11:30.303Z,98697.06
2022-08-10T08:16:38.886Z,98693.69
2022-08-10T08:24:05.949Z,98690.78
2022-08-10T08:27:11.947Z,98686.19
2022-08-10T08:32:22.717Z,98682.28
2022-08-10T08:38:30.200Z,98676.66
2022-08-10T08:43:28.483Z,98681.38
2022-08-10T08:49:00.097Z,98687.25
2022-08-10T08:54:39.923Z,98675.63
2022-08-10T09:00:05.214Z,98675.13
2022-08-10T09:05:58.474Z,98678.25
2022-08-10T09:11:05.657Z,98675.78
2022-08-10T09:16:24.207Z,98668.19
2022-08-10T09:21:43.125Z,98670.53
2022-08-10T09:26:52.555Z,98661.31
2022-08-10T09:35:39.246Z,98655.56
2022-08-10T09:38:02.039Z,98641.50
2022-08-10T09:43:25.336Z,98636.09
2022-08-10T09:48:42.497Z,98636.50
2022-08-10T09:54:04.381Z,98623.13
2022-08-10T09:59:29.308Z,98619.53
2022-08-10T10:04:59.812Z,98621.22
2022-08-10T10:10:14.226Z,98607.47
2022-08-10T10:15:32.671Z,98600.53
2022-08-10T10:20:52.569Z,98616.84
2022-08-10T10:26:18.726Z,98623.25
2022-08-10T10:31:39.432Z,98620.91
2022-08-10T10:36:46.840Z,98605.25
2022-08-10T10:42:14.644Z,98600.34
2022-08-10T10:47:50.402Z,98599.06
2022-08-10T10:53:11.814Z,98598.16
2022-08-10T10:58:28.651Z,98589.63
2022-08-10T11:03:53.644Z,98588.41
2022-08-10T11:09:06.399Z,98576.56
2022-08-10T11:14:29.544Z,98581.22
2022-08-10T11:20:00.531Z,98574.28
2022-08-10T11:25:21.382Z,98576.41
2022-08-10T11:30:40.900Z,98576.81
2022-08-10T11:35:49.648Z,98573.06
2022-08-10T11:42:05.819Z,98572.66
2022-08-10T11:46:43.686Z,98576.31
2022-08-10T11:51:56.535Z,98561.72
2022-08-10T11:57:02.970Z,98574.88
2022-08-10T12:02:13.915Z,98569.75
2022-08-10T12:10:01.774Z,98558.06
2022-08-10T12:12:59.694Z,98557.47
2022-08-10T12:18:16.510Z,98562.69
2022-08-10T12:23:32.277Z,98540.44
2022-08-10T12:28:52.001Z,98530.31
2022-08-10T12:34:17.874Z,98539.00
2022-08-10T12:39:30.286Z,98543.53
2022-08-10T12:44:43.830Z,98548.22
2022-08-10T12:50:29.600Z,98543.09
2022-08-10T12:55:25.601Z,98541.16
2022-08-10T13:00:35.045Z,98528.63
2022-08-10T13:06:02.573Z,98523.53
2022-08-10T13:12:34.005Z,98515.59
2022-08-10T13:16:39.130Z,98503.34
2022-08-10T13:21:46.117Z,98509.06
2022-08-10T13:27:25.080Z,98494.66
2022-08-10T13:32:27.081Z,98496.75
2022-08-10T13:37:35.909Z,98491.78
2022-08-10T13:42:42.746Z,98481.88
2022-08-10T13:47:52.115Z,98483.84
2022-08-10T13:53:01.478Z,98474.50
2022-08-10T13:58:06.874Z,98462.13
2022-08-10T14:03:13.526Z,98474.44
2022-08-10T14:08:24.163Z,98464.63
2022-08-10T14:13:29.464Z,98464.31
2022-08-10T14:18:35.807Z,98457.13
2022-08-10T14:23:52.876Z,98447.78
2022-08-10T14:29:07.562Z,98446.16
2022-08-10T14:34:14.437Z,98429.50
2022-08-10T14:39:26.974Z,98443.91
2022-08-10T14:44:42.473Z,98430.63
2022-08-10T14:49:57.089Z,98414.97
2022-08-10T14:55:19.667Z,98425.75
2022-08-10T15:00:33.067Z,98417.38
2022-08-10T15:05:41.893Z,98416.97
2022-08-10T15:10:51.109Z,98418.97
2022-08-10T15:16:11.885Z,98412.84
2022-08-10T15:21:18.162Z,98414.19
2022-08-10T15:26:29.251Z,98413.38
2022-08-10T15:31:56.839Z,98420.50
2022-08-10T15:37:39.732Z,98410.06
2022-08-10T15:42:41.493Z,98395.47
2022-08-10T15:48:03.409Z,98407.75
2022-08-10T15:53:17.039Z,98402.72
2022-08-10T15:58:37.711Z,98385.03
2022-08-10T16:03:54.562Z,98388.41
2022-08-10T16:10:23.483Z,98384.31
2022-08-10T16:14:38.650Z,98380.59
2022-08-10T16:19:53.095Z,98384.69
2022-08-10T16:24:58.980Z,98383.28
2022-08-10T16:30:08.515Z,98375.56
2022-08-10T16:35:18.727Z,98383.94
2022-08-10T16:40:28.015Z,98375.81
2022-08-10T16:45:40.934Z,98373.25
2022-08-10T16:50:56.326Z,98374.16
2022-08-10T16:56:06.148Z,98371.31
2022-08-10T17:01:18.107Z,98370.44
2022-08-10T17:06:30.009Z,98365.88
2022-08-10T17:11:38.816Z,98374.13
2022-08-10T17:16:51.877Z,98375.88
2022-08-10T17:22:00.404Z,98384.06
2022-08-10T17:28:04.125Z,98379.50
2022-08-10T17:32:45.202Z,98395.75
2022-08-10T17:37:58.078Z,98397.50
2022-08-10T17:43:04.376Z,98397.91
2022-08-10T17:48:10.869Z,98397.63
2022-08-10T17:53:19.739Z,98392.25
2022-08-10T17:58:27.139Z,98393.69
2022-08-10T18:03:37.028Z,98400.28
2022-08-10T18:08:47.717Z,98409.22
2022-08-10T18:14:02.624Z,98404.38
2022-08-10T18:19:12.656Z,98402.53
2022-08-10T18:24:21.985Z,98415.38
2022-08-10T18:29:29.912Z,98414.78
2022-08-10T18:34:39.968Z,98424.19
2022-08-10T18:39:50.583Z,98427.97
2022-08-10T18:45:02.390Z,98431.41
2022-08-10T18:50:14.089Z,98439.94
2022-08-10T18:55:27.742Z,98442.34
2022-08-10T19:01:07.098Z,98453.44
2022-08-10T19:06:38.085Z,98449.56
2022-08-10T19:12:06.175Z,98453.13
2022-08-10T19:18:03.020Z,98456.03
2022-08-10T19:23:28.006Z,98469.50
2022-08-10T19:28:47.426Z,98466.47
2022-08-10T19:34:12.769Z,98475.09
2022-08-10T19:39:28.783Z,98479.03
2022-08-10T19:44:46.141Z,98482.63
2022-08-10T19:50:01.256Z,98486.78
2022-08-10T19:55:18.865Z,98499.59
2022-08-10T20:00:36.541Z,98491.00
2022-08-10T20:06:19.169Z,98502.16
2022-08-10T20:11:45.156Z,98502.28
2022-08-10T20:16:59.949Z,98503.41
2022-08-10T20:22:13.774Z,98503.88
2022-08-10T20:27:58.631Z,98509.16
2022-08-10T20:33:01.958Z,98511.13
2022-08-10T20:38:12.167Z,98512.09
2022-08-10T20:43:27.565Z,98509.81
2022-08-10T20:48:44.079Z,98512.94
2022-08-10T20:53:56.369Z,98514.06
2022-08-10T20:59:33.425Z,98505.31
2022-08-10T21:04:53.035Z,98505.31
2022-08-10T21:10:16.286Z,98502.44
2022-08-10T21:15:55.617Z,98496.78
2022-08-10T21:21:16.539Z,98509.19
2022-08-10T21:26:33.630Z,98510.28
2022-08-10T21:32:15.425Z,98504.16
2022-08-10T21:37:56.710Z,98500.34
2022-08-10T21:43:32.175Z,98491.91
2022-08-10T21:49:23.076Z,98503.03
2022-08-10T21:54:57.459Z,98503.09
2022-08-10T22:00:27.348Z,98501.78
2022-08-10T22:05:57.820Z,98499.91
2022-08-10T22:11:22.901Z,98495.38
2022-08-10T22:17:01.127Z,98494.47
2022-08-10T22:22:31.215Z,98495.78
2022-08-10T22:27:57.616Z,98504.44
2022-08-10T22:33:44.670Z,98503.91
2022-08-10T22:40:10.134Z,98506.22
2022-08-10T22:45:15.156Z,98511.97
2022-08-10T22:50:28.271Z,98508.88
2022-08-10T22:55:57.584Z,98509.31
2022-08-10T23:01:11.803Z,98507.28
2022-08-10T23:06:22.156Z,98514.91
2022-08-10T23:11:33.865Z,98519.75
2022-08-10T23:17:06.043Z,98505.06
2022-08-10T23:22:15.681Z,98507.78
2022-08-10T23:27:39.328Z,98506.38
2022-08-10T23:32:48.916Z,98501.50
2022-08-10T23:37:57.093Z,98503.06
2022-08-10T23:43:05.550Z,98506.66
2022-08-10T23:48:11.463Z,98504.06
2022-08-10T23:53:26.220Z,98492.66
2022-08-10T23:58:42.083Z,98492.78
